Terminal Aerodrome Forecast
Issued by NWS Tulsa, OK

Home | Current Version | Previous Version | Text Only | Print | Product List | Glossary On
Versions: 1 2 3 4 5 6 7 8 9 10 11 12 13 14 15 16 17 18 19 20 21 22 23 24
000
FTUS44 KTSA 221134
TAFFSM
TAF
KFSM 221134Z 2212/2312 08005KT P6SM VCSH OVC040
      TEMPO 2212/2215 3SM -SHRA BR BKN025
     FM221500 28007KT 6SM -RA OVC025
     FM221700 30015G25KT P6SM VCSH OVC025
     FM230100 31014KT P6SM BKN050
     FM230600 30007KT P6SM SKC=

USA.gov is the U.S. government's official web portal to all federal, state and local government web resources and services.